createdAt,value
2019-06-20T00:03:08.088Z,1001.74
2019-06-20T00:08:04.022Z,1001.80
2019-06-20T00:13:00.918Z,1001.81
2019-06-20T00:17:56.190Z,1001.80
2019-06-20T00:22:53.032Z,1001.86
2019-06-20T00:27:48.943Z,1001.94
2019-06-20T00:32:44.861Z,1001.91
2019-06-20T00:37:40.913Z,1001.97
2019-06-20T00:42:37.755Z,1001.97
2019-06-20T00:47:34.537Z,1002.00
2019-06-20T00:52:30.058Z,1001.95
2019-06-20T00:57:25.871Z,1002.09
2019-06-20T01:02:21.508Z,1002.15
2019-06-20T01:07:18.414Z,1002.15
2019-06-20T01:12:13.994Z,1002.01
2019-06-20T01:17:09.787Z,1002.00
2019-06-20T01:22:06.808Z,1001.98
2019-06-20T01:27:03.273Z,1002.07
2019-06-20T01:31:59.774Z,1002.09
2019-06-20T01:36:55.859Z,1002.16
2019-06-20T01:41:51.891Z,1002.18
2019-06-20T01:46:47.784Z,1002.28
2019-06-20T01:51:43.623Z,1002.26
2019-06-20T01:56:39.646Z,1002.28
2019-06-20T02:01:36.476Z,1002.39
2019-06-20T02:06:32.037Z,1002.28
2019-06-20T02:11:28.003Z,1002.26
2019-06-20T02:16:23.786Z,1002.23
2019-06-20T02:21:19.594Z,1002.26
2019-06-20T02:26:15.327Z,1002.20
2019-06-20T02:31:11.024Z,1002.19
2019-06-20T02:36:07.480Z,1002.23
2019-06-20T02:41:03.319Z,1002.34
2019-06-20T02:45:59.327Z,1002.39
2019-06-20T02:50:55.236Z,1002.50
2019-06-20T02:55:51.695Z,1002.46
2019-06-20T03:00:47.439Z,1002.52
2019-06-20T03:05:44.355Z,1002.56
2019-06-20T03:10:40.664Z,1002.53
2019-06-20T03:15:36.631Z,1002.52
2019-06-20T03:20:32.272Z,1002.64
2019-06-20T03:25:27.865Z,1002.68
2019-06-20T03:30:23.788Z,1002.65
2019-06-20T03:35:19.869Z,1002.73
2019-06-20T03:40:15.697Z,1002.71
2019-06-20T03:45:11.781Z,1002.68
2019-06-20T03:50:07.640Z,1002.73
2019-06-20T03:55:03.449Z,1002.88
2019-06-20T03:59:59.635Z,1002.96
2019-06-20T04:04:55.762Z,1003.06
2019-06-20T04:09:52.867Z,1003.07
2019-06-20T04:14:49.268Z,1003.11
2019-06-20T04:19:44.958Z,1003.26
2019-06-20T04:24:40.834Z,1003.33
2019-06-20T04:29:36.816Z,1003.33
2019-06-20T04:34:32.681Z,1003.25
2019-06-20T04:39:28.541Z,1003.34
2019-06-20T04:44:24.660Z,1003.42
2019-06-20T04:49:20.777Z,1003.30
2019-06-20T04:54:16.714Z,1003.41
2019-06-20T04:59:13.567Z,1003.40
2019-06-20T05:04:09.176Z,1003.53
2019-06-20T05:09:05.375Z,1003.62
2019-06-20T05:14:02.436Z,1003.66
2019-06-20T05:18:58.209Z,1003.68
2019-06-20T05:23:54.137Z,1003.73
2019-06-20T05:28:50.227Z,1003.76
2019-06-20T05:33:46.059Z,1003.88
2019-06-20T05:38:43.262Z,1003.84
2019-06-20T05:43:38.889Z,1004.00
2019-06-20T05:48:35.987Z,1004.05
2019-06-20T05:53:33.523Z,1004.06
2019-06-20T05:58:29.154Z,1004.08
2019-06-20T06:03:24.830Z,1004.10
2019-06-20T06:08:22.189Z,1004.16
2019-06-20T06:13:17.900Z,1004.10
2019-06-20T06:18:14.217Z,1004.14
2019-06-20T06:23:10.258Z,1003.97
2019-06-20T06:28:06.207Z,1004.13
2019-06-20T06:33:02.303Z,1004.15
2019-06-20T06:37:58.436Z,1004.24
2019-06-20T06:42:54.752Z,1004.19
2019-06-20T06:47:50.453Z,1004.32
2019-06-20T06:52:46.614Z,1004.22
2019-06-20T06:57:42.926Z,1004.19
2019-06-20T07:02:38.364Z,1004.20
2019-06-20T07:07:34.030Z,1004.27
2019-06-20T07:12:29.646Z,1004.33
2019-06-20T07:17:25.666Z,1004.43
2019-06-20T07:22:21.912Z,1004.36
2019-06-20T07:27:18.445Z,1004.35
2019-06-20T07:32:14.561Z,1004.43
2019-06-20T07:37:10.966Z,1004.52
2019-06-20T07:42:06.712Z,1004.44
2019-06-20T07:47:16.711Z,1004.50
2019-06-20T07:52:02.442Z,1004.48
2019-06-20T07:56:59.499Z,1004.47
2019-06-20T08:01:55.828Z,1004.52
2019-06-20T08:06:51.304Z,1004.53
2019-06-20T08:11:48.622Z,1004.55
2019-06-20T08:16:44.184Z,1004.59
2019-06-20T08:21:40.109Z,1004.75
2019-06-20T08:26:36.776Z,1004.87
2019-06-20T08:31:33.193Z,1004.93
2019-06-20T08:36:28.543Z,1005.03
2019-06-20T08:41:24.458Z,1004.91
2019-06-20T08:46:21.264Z,1004.96
2019-06-20T08:51:20.632Z,1005.06
2019-06-20T08:56:19.568Z,1004.91
2019-06-20T09:01:16.264Z,1004.87
2019-06-20T09:06:13.798Z,1005.08
2019-06-20T09:11:10.999Z,1004.87
2019-06-20T09:16:07.312Z,1004.85
2019-06-20T09:21:02.873Z,1005.01
2019-06-20T09:25:57.636Z,1004.99
2019-06-20T09:30:53.917Z,1004.95
2019-06-20T09:35:53.599Z,1004.93
2019-06-20T09:40:51.361Z,1004.98
2019-06-20T09:45:46.180Z,1005.13
2019-06-20T09:50:42.120Z,1005.12
2019-06-20T09:55:38.285Z,1005.09
2019-06-20T10:00:34.162Z,1005.03
2019-06-20T10:05:30.853Z,1005.19
2019-06-20T10:10:27.186Z,1005.12
2019-06-20T10:15:22.220Z,1005.04
2019-06-20T10:20:17.460Z,1005.05
2019-06-20T10:25:14.539Z,1005.02
2019-06-20T10:30:14.525Z,1005.18
2019-06-20T10:35:09.589Z,1005.19
2019-06-20T10:40:08.137Z,1005.10
2019-06-20T10:45:03.967Z,1005.25
2019-06-20T10:49:59.447Z,1005.28
2019-06-20T10:54:57.957Z,1005.28
2019-06-20T10:59:55.386Z,1005.30
2019-06-20T11:04:50.452Z,1005.42
2019-06-20T11:09:49.367Z,1005.36
2019-06-20T11:14:46.273Z,1005.42
2019-06-20T11:19:41.593Z,1005.34
2019-06-20T11:24:40.925Z,1005.24
2019-06-20T11:29:37.920Z,1005.32
2019-06-20T11:34:34.594Z,1005.31
2019-06-20T11:39:30.091Z,1005.26
2019-06-20T11:44:25.687Z,1005.37
2019-06-20T11:49:21.417Z,1005.39
2019-06-20T11:54:15.777Z,1005.46
2019-06-20T11:59:11.115Z,1005.44
2019-06-20T12:04:09.347Z,1005.57
2019-06-20T12:09:07.384Z,1005.50
2019-06-20T12:14:03.096Z,1005.51
2019-06-20T12:19:01.687Z,1005.45
2019-06-20T12:23:57.584Z,1005.43
2019-06-20T12:28:52.558Z,1005.53
2019-06-20T12:33:49.534Z,1005.40
2019-06-20T12:38:46.283Z,1005.54
2019-06-20T12:43:44.448Z,1005.56
2019-06-20T12:48:41.186Z,1005.44
2019-06-20T12:53:38.686Z,1005.48
2019-06-20T12:58:34.401Z,1005.48
2019-06-20T13:03:30.122Z,1005.48
2019-06-20T13:08:26.182Z,1005.30
2019-06-20T13:13:22.152Z,1005.46
2019-06-20T13:18:18.399Z,1005.40
2019-06-20T13:23:13.574Z,1005.48
2019-06-20T13:28:09.838Z,1005.59
2019-06-20T13:33:05.233Z,1005.53
2019-06-20T13:38:00.995Z,1005.59
2019-06-20T13:42:57.674Z,1005.55
2019-06-20T13:47:53.776Z,1005.49
2019-06-20T13:52:51.286Z,1005.57
2019-06-20T13:57:47.202Z,1005.60
2019-06-20T14:02:45.020Z,1005.53
2019-06-20T14:07:47.023Z,1005.53
2019-06-20T14:12:41.872Z,1005.52
2019-06-20T14:17:38.021Z,1005.53
2019-06-20T14:22:33.697Z,1005.54
2019-06-20T14:27:29.587Z,1005.54
2019-06-20T14:32:25.427Z,1005.48
2019-06-20T14:37:21.627Z,1005.49
2019-06-20T14:42:17.785Z,1005.48
2019-06-20T14:47:13.809Z,1005.53
2019-06-20T14:52:09.839Z,1005.53
2019-06-20T14:57:06.692Z,1005.51
2019-06-20T15:02:02.256Z,1005.62
2019-06-20T15:06:58.160Z,1005.67
2019-06-20T15:11:55.136Z,1005.62
2019-06-20T15:16:51.229Z,1005.61
2019-06-20T15:21:48.486Z,1005.71
2019-06-20T15:26:45.873Z,1005.71
2019-06-20T15:31:43.815Z,1005.74
2019-06-20T15:36:40.513Z,1005.77
2019-06-20T15:41:36.467Z,1005.73
2019-06-20T15:46:33.388Z,1005.73
2019-06-20T15:51:29.977Z,1005.71
2019-06-20T15:56:25.644Z,1005.71
2019-06-20T16:01:21.553Z,1005.75
2019-06-20T16:06:18.276Z,1005.85
2019-06-20T16:11:14.973Z,1005.75
2019-06-20T16:16:10.530Z,1005.76
2019-06-20T16:21:06.631Z,1005.87
2019-06-20T16:26:02.379Z,1005.85
2019-06-20T16:31:08.419Z,1005.85
2019-06-20T16:35:59.412Z,1005.85
2019-06-20T16:40:55.894Z,1005.72
2019-06-20T16:45:51.510Z,1005.78
2019-06-20T16:50:48.358Z,1005.78
2019-06-20T16:55:44.389Z,1005.81
2019-06-20T17:00:40.884Z,1005.93
2019-06-20T17:05:37.501Z,1005.95
2019-06-20T17:10:33.170Z,1005.99
2019-06-20T17:15:28.933Z,1006.16
2019-06-20T17:20:24.756Z,1006.19
2019-06-20T17:25:20.634Z,1006.18
2019-06-20T17:30:16.709Z,1006.27
2019-06-20T17:35:12.871Z,1006.32
2019-06-20T17:40:08.641Z,1006.41
2019-06-20T17:45:04.344Z,1006.38
2019-06-20T17:50:00.405Z,1006.44
2019-06-20T17:54:57.249Z,1006.52
2019-06-20T17:59:53.345Z,1006.48
2019-06-20T18:04:49.293Z,1006.46
2019-06-20T18:09:45.229Z,1006.55
2019-06-20T18:14:40.977Z,1006.61
2019-06-20T18:19:36.900Z,1006.73
2019-06-20T18:24:32.840Z,1006.63
2019-06-20T18:29:29.050Z,1006.81
2019-06-20T18:34:29.977Z,1006.83
2019-06-20T18:39:24.604Z,1006.86
2019-06-20T18:44:20.061Z,1006.90
2019-06-20T18:49:16.086Z,1006.87
2019-06-20T18:54:11.741Z,1006.85
2019-06-20T18:59:08.166Z,1006.90
2019-06-20T19:04:04.124Z,1007.02
2019-06-20T19:08:59.841Z,1007.08
2019-06-20T19:13:56.287Z,1007.23
2019-06-20T19:18:53.627Z,1007.28
2019-06-20T19:23:49.223Z,1007.37
2019-06-20T19:28:46.233Z,1007.42
2019-06-20T19:33:41.875Z,1007.53
2019-06-20T19:38:38.234Z,1007.51
2019-06-20T19:43:34.118Z,1007.59
2019-06-20T19:48:29.916Z,1007.66
2019-06-20T19:53:25.981Z,1007.84
2019-06-20T19:58:22.058Z,1007.81
2019-06-20T20:03:18.055Z,1007.86
2019-06-20T20:08:14.048Z,1007.89
2019-06-20T20:13:09.602Z,1008.05
2019-06-20T20:18:05.604Z,1008.13
2019-06-20T20:23:01.400Z,1008.14
2019-06-20T20:27:57.239Z,1008.23
2019-06-20T20:32:53.453Z,1008.28
2019-06-20T20:37:49.253Z,1008.37
2019-06-20T20:42:45.734Z,1008.34
2019-06-20T20:47:41.705Z,1008.28
2019-06-20T20:52:37.757Z,1008.35
2019-06-20T20:57:34.380Z,1008.38
2019-06-20T21:02:29.937Z,1008.46
2019-06-20T21:07:26.041Z,1008.41
2019-06-20T21:12:21.983Z,1008.57
2019-06-20T21:17:17.694Z,1008.57
2019-06-20T21:22:13.607Z,1008.62
2019-06-20T21:27:10.391Z,1008.70
2019-06-20T21:32:05.848Z,1008.68
2019-06-20T21:37:02.085Z,1008.69
2019-06-20T21:41:57.964Z,1008.74
2019-06-20T21:46:53.962Z,1008.92
2019-06-20T21:51:49.936Z,1008.87
2019-06-20T21:56:45.633Z,1008.97
2019-06-20T22:01:41.734Z,1008.98
2019-06-20T22:06:37.523Z,1008.91
2019-06-20T22:11:34.555Z,1008.97
2019-06-20T22:16:31.249Z,1009.00
2019-06-20T22:21:27.825Z,1009.00
2019-06-20T22:26:23.033Z,1009.02
2019-06-20T22:31:18.865Z,1009.02
2019-06-20T22:36:14.532Z,1009.03
2019-06-20T22:41:11.496Z,1009.07
2019-06-20T22:46:06.742Z,1009.04
2019-06-20T22:51:03.318Z,1009.08
2019-06-20T22:55:59.450Z,1009.11
2019-06-20T23:00:55.279Z,1009.15
2019-06-20T23:05:52.206Z,1009.12
2019-06-20T23:10:47.822Z,1009.15
2019-06-20T23:15:43.718Z,1009.27
2019-06-20T23:20:40.110Z,1009.17
2019-06-20T23:25:35.881Z,1009.22
2019-06-20T23:30:32.558Z,1009.20
2019-06-20T23:35:28.988Z,1009.20
2019-06-20T23:40:24.291Z,1009.23
2019-06-20T23:45:20.175Z,1009.33
2019-06-20T23:50:17.406Z,1009.31
2019-06-20T23:55:12.908Z,1009.38
